createdAt,value
2018-06-08T00:00:09.008Z,165.20
2018-06-08T00:01:09.077Z,154.90
2018-06-08T00:02:09.086Z,160.70
2018-06-08T00:03:09.132Z,153.70
2018-06-08T00:04:09.201Z,155.60
2018-06-08T00:05:09.225Z,166.20
2018-06-08T00:06:09.281Z,164.10
2018-06-08T00:07:09.310Z,159.80
2018-06-08T00:08:09.355Z,151.30
2018-06-08T00:09:09.393Z,152.80
2018-06-08T00:10:09.450Z,154.60
2018-06-08T00:11:09.505Z,145.90
2018-06-08T00:12:09.548Z,163.80
2018-06-08T00:13:09.574Z,155.00
2018-06-08T00:14:09.621Z,154.30
2018-06-08T00:15:09.651Z,148.90
2018-06-08T00:16:09.713Z,149.80
2018-06-08T00:17:09.813Z,158.60
2018-06-08T00:18:09.800Z,162.90
2018-06-08T00:19:09.944Z,157.10
2018-06-08T00:20:09.888Z,147.00
2018-06-08T00:21:09.933Z,138.50
2018-06-08T00:22:09.978Z,153.80
2018-06-08T00:23:10.023Z,152.00
2018-06-08T18:18:24.785Z,453.90
2018-06-08T18:19:24.584Z,439.90
2018-06-08T18:20:24.645Z,456.90
2018-06-08T18:21:24.677Z,457.10
2018-06-08T18:22:24.704Z,418.20
2018-06-08T18:23:24.993Z,421.60
2018-06-08T18:24:24.800Z,418.10
2018-06-08T18:25:24.839Z,427.10
2018-06-08T18:26:24.919Z,423.60
2018-06-08T18:27:24.942Z,382.50
2018-06-08T18:28:24.988Z,407.10
2018-06-08T18:29:25.033Z,390.40
2018-06-08T18:30:25.075Z,410.90
2018-06-08T18:31:25.100Z,382.60
2018-06-08T18:32:25.154Z,409.60
2018-06-08T18:33:25.215Z,397.20
2018-06-08T18:34:25.466Z,425.80
2018-06-08T18:35:25.291Z,383.50
2018-06-08T18:36:25.324Z,391.40
2018-06-08T18:37:25.364Z,411.70
2018-06-08T18:38:25.444Z,389.60
2018-06-08T18:39:25.501Z,395.60
2018-06-08T18:40:25.614Z,408.20
2018-06-08T18:41:25.541Z,406.30
2018-06-08T18:42:25.596Z,384.20
2018-06-08T18:43:25.651Z,375.50
2018-06-08T18:44:25.684Z,378.60
2018-06-08T18:45:25.720Z,380.70
2018-06-08T18:46:25.995Z,380.90
2018-06-08T18:47:25.821Z,379.80
2018-06-08T18:48:25.875Z,376.30
2018-06-08T18:49:25.916Z,378.50
2018-06-08T18:50:25.939Z,356.80
2018-06-08T18:51:26.104Z,365.30
2018-06-08T18:52:26.029Z,369.60
2018-06-08T18:53:26.098Z,379.00
2018-06-08T18:54:26.209Z,368.00
2018-06-08T18:55:26.168Z,372.70
2018-06-08T18:56:26.206Z,358.80
2018-06-08T18:57:26.262Z,336.80
2018-06-08T18:58:26.319Z,315.30
2018-06-08T18:59:26.355Z,343.60
2018-06-08T19:00:26.394Z,341.30
2018-06-08T19:01:26.429Z,342.50
2018-06-08T19:02:26.472Z,355.10
2018-06-08T19:03:26.735Z,328.70
2018-06-08T19:04:26.584Z,335.00
2018-06-08T19:05:26.614Z,328.50
2018-06-08T19:06:26.645Z,351.40
2018-06-08T19:07:26.689Z,364.00
2018-06-08T19:08:26.740Z,334.10
2018-06-08T19:09:26.805Z,330.10
2018-06-08T19:10:26.826Z,306.30
2018-06-08T19:11:26.877Z,301.30
2018-06-08T19:12:26.932Z,311.10
2018-06-08T19:13:26.973Z,324.00
2018-06-08T19:14:27.017Z,299.70
2018-06-08T19:15:27.043Z,294.70
2018-06-08T19:16:27.106Z,301.40
2018-06-08T19:17:27.141Z,330.60
2018-06-08T19:18:27.188Z,333.10
2018-06-08T19:19:27.495Z,342.40
2018-06-08T19:20:27.280Z,331.40
2018-06-08T19:21:27.327Z,331.60
2018-06-08T19:22:27.368Z,332.40
2018-06-08T19:23:27.421Z,341.60
2018-06-08T19:24:27.444Z,348.10
2018-06-08T19:25:27.697Z,349.60
2018-06-08T19:26:27.544Z,326.20
2018-06-08T19:27:27.585Z,342.80
2018-06-08T19:28:27.633Z,356.60
2018-06-08T19:29:27.678Z,337.00
2018-06-08T19:30:27.720Z,357.90
2018-06-08T19:31:27.764Z,332.20
2018-06-08T19:32:27.913Z,321.80
2018-06-08T19:33:27.874Z,331.50
2018-06-08T19:34:27.897Z,330.50
2018-06-08T19:35:27.933Z,334.40
2018-06-08T19:36:27.983Z,324.20
2018-06-08T19:37:28.230Z,338.80
2018-06-08T19:38:28.062Z,314.70
2018-06-08T19:39:28.115Z,334.50
2018-06-08T19:40:28.155Z,319.30
2018-06-08T19:41:28.201Z,291.80
2018-06-08T19:42:28.230Z,279.50
2018-06-08T19:43:28.297Z,323.80
2018-06-08T19:44:28.596Z,308.40
2018-06-08T19:45:28.382Z,334.40
2018-06-08T19:46:28.416Z,302.40
2018-06-08T19:47:28.464Z,325.90
2018-06-08T19:48:28.521Z,325.90
2018-06-08T19:49:28.550Z,298.70
2018-06-08T19:50:28.702Z,284.20
2018-06-08T19:51:28.635Z,326.00
2018-06-08T19:52:28.664Z,318.00
2018-06-08T19:53:28.725Z,314.40
2018-06-08T19:54:28.778Z,324.80
2018-06-08T19:55:28.792Z,308.50
2018-06-08T19:56:28.958Z,368.60
2018-06-08T19:57:28.902Z,358.00
2018-06-08T19:58:28.954Z,371.90
2018-06-08T19:59:28.991Z,338.00
2018-06-08T20:00:29.026Z,315.40
2018-06-08T20:01:29.271Z,262.00
2018-06-08T20:02:29.140Z,266.00
2018-06-08T20:03:29.166Z,277.20
2018-06-08T20:04:29.203Z,319.10
2018-06-08T20:05:29.227Z,335.50
2018-06-08T20:06:29.284Z,297.60
2018-06-08T20:07:29.313Z,249.30
2018-06-08T20:08:29.475Z,297.20
2018-06-08T20:09:29.420Z,292.00
2018-06-08T20:10:29.467Z,264.80
2018-06-08T20:11:29.507Z,336.10
2018-06-08T20:12:29.543Z,328.10
2018-06-08T20:13:29.599Z,300.70
2018-06-08T20:14:29.731Z,340.50
2018-06-08T20:15:29.672Z,366.30
2018-06-08T20:16:29.727Z,352.50
2018-06-08T20:17:29.788Z,330.60
2018-06-08T20:18:29.795Z,327.00
2018-06-08T20:19:29.843Z,339.20
2018-06-08T20:20:29.992Z,365.80
2018-06-08T20:21:29.941Z,332.20
2018-06-08T20:22:29.978Z,318.80
2018-06-08T20:23:30.025Z,336.50
2018-06-08T20:24:30.096Z,342.40
2018-06-08T20:25:30.115Z,286.10
2018-06-08T20:26:30.159Z,320.80
2018-06-08T20:27:30.202Z,337.30
2018-06-08T20:28:30.261Z,310.80
2018-06-08T20:29:30.283Z,302.70
2018-06-08T20:30:30.354Z,294.80
2018-06-08T20:31:30.354Z,281.50
2018-06-08T20:32:30.413Z,278.70
2018-06-08T20:33:30.452Z,271.50
2018-06-08T20:34:30.485Z,287.50
2018-06-08T20:35:30.554Z,274.50
2018-06-08T20:36:30.585Z,281.90
2018-06-08T20:37:30.631Z,279.50
2018-06-08T20:38:30.693Z,274.80
2018-06-08T20:39:30.710Z,317.10
2018-06-08T20:40:30.756Z,277.70
2018-06-08T20:41:30.909Z,291.80
2018-06-08T20:42:30.852Z,306.20
2018-06-08T20:43:30.892Z,286.30
2018-06-08T20:44:30.929Z,307.50
2018-06-08T20:45:30.968Z,280.10
2018-06-08T20:46:31.020Z,277.80
2018-06-08T20:47:31.069Z,303.60
2018-06-08T20:48:31.205Z,306.30
2018-06-08T20:49:31.146Z,297.50
2018-06-08T20:50:31.191Z,283.30
2018-06-08T20:51:31.244Z,304.00
2018-06-08T20:52:31.265Z,289.20
2018-06-08T20:53:31.314Z,286.00
2018-06-08T20:54:31.566Z,292.30
2018-06-08T20:55:31.427Z,286.00
2018-06-08T20:56:31.428Z,281.60
2018-06-08T20:57:31.501Z,269.80
2018-06-08T20:58:31.525Z,278.60
2018-06-08T20:59:31.588Z,259.30
2018-06-08T21:00:31.867Z,244.40
2018-06-08T21:01:31.665Z,256.40
2018-06-08T21:02:31.743Z,225.90
2018-06-08T21:03:31.747Z,241.30
2018-06-08T21:04:31.788Z,266.00
2018-06-08T21:05:31.827Z,251.00
2018-06-08T21:06:32.075Z,248.00
2018-06-08T21:07:31.926Z,248.60
2018-06-08T21:08:31.960Z,264.10
2018-06-08T21:09:31.991Z,256.00
2018-06-08T21:10:32.059Z,268.20
2018-06-08T21:11:32.215Z,250.90
2018-06-08T21:12:32.117Z,284.00
2018-06-08T21:13:32.182Z,270.10
2018-06-08T21:14:32.231Z,256.10
2018-06-08T21:15:32.254Z,254.40
2018-06-08T21:16:32.285Z,248.10
2018-06-08T21:17:32.355Z,250.50
2018-06-08T21:18:32.399Z,229.20
2018-06-08T21:19:32.432Z,236.10
2018-06-08T21:20:32.476Z,260.70
2018-06-08T21:21:32.610Z,208.40
2018-06-08T21:22:32.572Z,214.10
2018-06-08T21:23:32.594Z,213.90
2018-06-08T21:24:32.622Z,200.60
2018-06-08T21:25:32.696Z,208.10
2018-06-08T21:26:32.727Z,180.80
2018-06-08T21:27:32.761Z,195.80
2018-06-08T21:28:32.929Z,252.70
2018-06-08T21:29:32.846Z,202.90
2018-06-08T21:30:32.896Z,238.20
2018-06-08T21:31:32.916Z,203.00
2018-06-08T21:32:32.982Z,220.60
2018-06-08T21:33:33.026Z,201.10
2018-06-08T21:34:33.161Z,239.60
2018-06-08T21:35:33.108Z,267.90
2018-06-08T21:36:33.164Z,295.40
2018-06-08T21:37:33.199Z,231.20
2018-06-08T21:38:33.239Z,208.00
2018-06-08T21:39:33.368Z,222.60
2018-06-08T21:40:33.300Z,220.20
2018-06-08T21:41:33.390Z,206.70
2018-06-08T21:42:33.407Z,195.40
2018-06-08T21:43:33.431Z,233.30
2018-06-08T21:44:33.471Z,193.20
2018-06-08T21:45:33.511Z,275.30
2018-06-08T21:46:33.786Z,209.40
2018-06-08T21:47:33.617Z,196.50
2018-06-08T21:48:33.639Z,203.10
2018-06-08T21:49:33.701Z,220.90
2018-06-08T21:50:33.750Z,217.80
2018-06-08T21:51:33.864Z,205.50
2018-06-08T21:52:33.823Z,224.40
2018-06-08T21:53:33.846Z,217.40
2018-06-08T21:54:33.892Z,210.50
2018-06-08T21:55:33.956Z,229.80
2018-06-08T21:56:33.979Z,230.90
2018-06-08T21:57:34.026Z,264.50
2018-06-08T21:58:34.160Z,257.60
2018-06-08T21:59:34.105Z,237.50
2018-06-08T22:00:34.167Z,246.60
2018-06-08T22:01:34.193Z,263.20
2018-06-08T22:02:34.244Z,244.90
2018-06-08T22:03:34.262Z,244.80
2018-06-08T22:04:34.526Z,294.60
2018-06-08T22:05:34.363Z,241.80
2018-06-08T22:06:34.411Z,241.60
2018-06-08T22:07:34.443Z,301.60
2018-06-08T22:08:34.478Z,228.20
2018-06-08T22:09:34.521Z,254.20
2018-06-08T22:10:34.690Z,264.60
2018-06-08T22:11:34.613Z,249.60
2018-06-08T22:12:34.656Z,270.70
2018-06-08T22:13:34.701Z,236.50
2018-06-08T22:14:34.733Z,194.60
2018-06-08T22:15:34.784Z,247.20
2018-06-08T22:16:34.909Z,230.50
2018-06-08T22:17:34.862Z,240.70
2018-06-08T22:18:34.894Z,228.70
2018-06-08T22:19:34.953Z,235.20
2018-06-08T22:20:34.990Z,237.80
2018-06-08T22:21:35.022Z,221.20
2018-06-08T22:22:35.182Z,230.80
2018-06-08T22:23:35.107Z,245.20
2018-06-08T22:24:35.165Z,234.50
2018-06-08T22:25:35.205Z,229.60
2018-06-08T22:26:35.230Z,233.00
2018-06-08T22:27:35.480Z,238.70
2018-06-08T22:28:35.314Z,233.00
2018-06-08T22:29:35.361Z,221.50
2018-06-08T22:30:35.391Z,236.20
2018-06-08T22:31:35.445Z,233.20
2018-06-08T22:32:35.471Z,224.30
2018-06-08T22:33:35.625Z,231.70
2018-06-08T22:34:35.578Z,264.70
2018-06-08T22:35:35.635Z,236.90
2018-06-08T22:36:35.667Z,250.90
2018-06-08T22:37:35.689Z,251.80
2018-06-08T22:38:35.747Z,256.00
2018-06-08T22:39:35.895Z,260.30
2018-06-08T22:40:35.847Z,253.60
2018-06-08T22:41:35.875Z,266.00
2018-06-08T22:42:35.917Z,260.20
2018-06-08T22:43:35.944Z,249.40
2018-06-08T22:44:35.975Z,254.70
2018-06-08T22:45:36.017Z,241.10
2018-06-08T22:46:36.062Z,238.70
2018-06-08T22:47:36.120Z,250.10
2018-06-08T22:48:36.185Z,251.30
2018-06-08T22:49:36.187Z,243.00
2018-06-08T22:50:36.344Z,268.00
2018-06-08T22:51:36.298Z,245.10
2018-06-08T22:52:36.326Z,251.10
2018-06-08T22:53:36.357Z,295.20
2018-06-08T22:54:36.398Z,259.10
2018-06-08T22:55:36.451Z,245.70
2018-06-08T22:56:36.491Z,256.80
2018-06-08T22:57:36.518Z,253.70
2018-06-08T22:58:36.585Z,246.60
2018-06-08T22:59:36.629Z,253.50
2018-06-08T23:00:36.751Z,257.40
2018-06-08T23:01:36.704Z,249.30
2018-06-08T23:02:36.732Z,256.30
2018-06-08T23:03:36.774Z,252.30
2018-06-08T23:04:36.833Z,252.70
2018-06-08T23:05:36.875Z,252.90
2018-06-08T23:06:37.130Z,275.50
2018-06-08T23:07:36.959Z,260.90
2018-06-08T23:08:36.996Z,245.60
2018-06-08T23:09:37.066Z,251.50
2018-06-08T23:10:37.080Z,254.50
2018-06-08T23:11:37.215Z,245.10
2018-06-08T23:12:37.151Z,255.20
2018-06-08T23:13:37.198Z,253.80
2018-06-08T23:14:37.254Z,241.10
2018-06-08T23:15:37.290Z,247.50
2018-06-08T23:16:37.338Z,201.60
2018-06-08T23:17:37.646Z,191.60
2018-06-08T23:18:37.516Z,185.30
2018-06-08T23:19:37.449Z,193.80
2018-06-08T23:20:37.509Z,193.30
2018-06-08T23:21:37.553Z,194.90
2018-06-08T23:22:37.592Z,181.30
2018-06-08T23:23:37.735Z,193.70
2018-06-08T23:24:37.691Z,192.90
2018-06-08T23:25:37.723Z,189.10
2018-06-08T23:26:37.774Z,211.20
2018-06-08T23:27:37.807Z,197.40
2018-06-08T23:28:37.840Z,201.30
2018-06-08T23:29:37.884Z,197.00
2018-06-08T23:30:37.919Z,194.20
2018-06-08T23:31:37.980Z,202.30
2018-06-08T23:32:38.008Z,184.30
2018-06-08T23:33:38.048Z,204.20
2018-06-08T23:34:38.200Z,215.80
2018-06-08T23:35:38.138Z,200.60
2018-06-08T23:36:38.183Z,195.50
2018-06-08T23:37:38.221Z,209.60
2018-06-08T23:38:38.268Z,204.00
2018-06-08T23:39:38.299Z,212.70
2018-06-08T23:40:38.348Z,217.60
2018-06-08T23:41:38.393Z,218.80
2018-06-08T23:42:38.417Z,218.10
2018-06-08T23:43:38.468Z,219.50
2018-06-08T23:44:38.497Z,230.30
2018-06-08T23:45:38.541Z,223.70
2018-06-08T23:46:38.589Z,221.90
2018-06-08T23:47:38.643Z,198.30
2018-06-08T23:48:38.690Z,224.90
2018-06-08T23:49:38.722Z,203.30
2018-06-08T23:50:38.762Z,198.20
2018-06-08T23:51:38.807Z,210.50
2018-06-08T23:52:38.846Z,213.50
2018-06-08T23:53:38.908Z,210.80
2018-06-08T23:54:39.028Z,209.40
2018-06-08T23:55:38.986Z,194.30
2018-06-08T23:56:39.022Z,199.10
2018-06-08T23:57:39.052Z,208.80
2018-06-08T23:58:39.107Z,201.20
2018-06-08T23:59:39.144Z,197.10
